Terminal Aerodrome Forecast
Issued by NWS Sioux Falls, SD

Home | Current Version | Previous Version | Text Only | Print | Product List | Glossary On
Versions: 1 2 3 4 5 6 7 8 9 10 11 12 13 14 15 16 17 18 19 20 21 22 23 24 25 26 27 28 29 30
000
FTUS43 KFSD 211128
TAFSUX
TAF
KSUX 211128Z 2112/2212 10005KT P6SM FEW060
     FM211500 12010KT P6SM SCT030 BKN050
     FM211600 14012KT P6SM SCT035
     FM211800 16015G23KT P6SM FEW050 SCT250
     FM220300 15013KT P6SM FEW250 WS011/18045KT
     FM220700 16013G22KT P6SM FEW250=

USA.gov is the U.S. government's official web portal to all federal, state and local government web resources and services.